Time;durP1;ratioP1;P1;durP2;ratioP2;P2;SDS_P1;SDS_P2;PMS_P1;PMS_P2;Temp;Humidity;BMP_temperature;BMP_pressure;BME280_temperature;BME280_humidity;BME280_pressure;Samples;Min_cycle;Max_cycle;Signal;HPM_P1;HPM_P2
2023/07/23 00:01:47;;;;;;;3.45;2.70;;;20.50;60.70;;;;;;4983028;28;20130;-68
2023/07/23 00:04:12;;;;;;;2.90;2.60;;;20.50;60.70;;;;;;4984134;28;20035;-69
2023/07/23 00:06:39;;;;;;;3.33;2.90;;;20.50;60.90;;;;;;4975749;28;20027;-70
2023/07/23 00:09:04;;;;;;;2.92;2.33;;;20.50;60.70;;;;;;4978947;28;20030;-69
2023/07/23 00:11:30;;;;;;;3.80;2.38;;;20.50;60.80;;;;;;4981702;28;20018;-69
2023/07/23 00:13:56;;;;;;;2.25;2.05;;;20.50;60.70;;;;;;4978748;28;20179;-68
2023/07/23 00:16:23;;;;;;;3.30;2.40;;;20.50;60.70;;;;;;4989264;28;20093;-69
2023/07/23 00:18:49;;;;;;;3.85;2.30;;;20.60;60.70;;;;;;4975914;28;20465;-69
2023/07/23 00:21:15;;;;;;;3.92;2.50;;;20.60;60.60;;;;;;4988482;28;20036;-70
2023/07/23 00:23:40;;;;;;;2.00;1.75;;;20.60;60.60;;;;;;4998403;28;20058;-69
2023/07/23 00:26:06;;;;;;;2.88;2.33;;;20.60;60.30;;;;;;5003006;28;20042;-69
2023/07/23 00:28:31;;;;;;;2.28;2.00;;;20.70;60.40;;;;;;5000963;28;20018;-68
2023/07/23 00:30:57;;;;;;;2.63;2.28;;;20.70;60.40;;;;;;4993635;28;20042;-68
2023/07/23 00:33:23;;;;;;;4.55;2.45;;;20.70;60.50;;;;;;4980676;28;20034;-68
2023/07/23 00:35:49;;;;;;;5.18;2.33;;;20.70;60.40;;;;;;4992249;28;20040;-67
2023/07/23 00:38:14;;;;;;;2.67;2.40;;;20.70;60.40;;;;;;4982498;28;20709;-68
2023/07/23 00:40:40;;;;;;;3.58;2.47;;;20.80;60.20;;;;;;4983473;28;20031;-69
2023/07/23 00:43:07;;;;;;;3.17;2.10;;;20.80;60.40;;;;;;4985849;28;20035;-69
2023/07/23 00:45:32;;;;;;;2.67;2.03;;;20.80;60.20;;;;;;4979911;28;20137;-69
2023/07/23 00:47:58;;;;;;;4.57;2.30;;;20.80;60.20;;;;;;4981072;28;20049;-68
2023/07/23 00:50:25;;;;;;;3.88;2.25;;;20.80;60.20;;;;;;4985452;28;20057;-69
2023/07/23 00:52:51;;;;;;;2.83;2.00;;;20.80;60.20;;;;;;4978117;28;20129;-67
2023/07/23 00:55:16;;;;;;;2.30;2.10;;;20.80;60.30;;;;;;4984001;28;20125;-67
2023/07/23 00:57:44;;;;;;;5.90;2.80;;;20.80;60.20;;;;;;4982276;28;20070;-69
2023/07/23 01:00:10;;;;;;;2.20;2.00;;;20.80;60.20;;;;;;4978719;28;20093;-69
2023/07/23 01:02:36;;;;;;;2.78;1.90;;;20.80;60.20;;;;;;4983072;28;20313;-69
2023/07/23 01:05:03;;;;;;;2.35;2.13;;;20.80;60.10;;;;;;4989066;28;20042;-68
2023/07/23 01:07:31;;;;;;;3.00;1.85;;;20.80;60.10;;;;;;4987323;28;20030;-68
2023/07/23 01:09:57;;;;;;;3.88;2.10;;;20.80;60.20;;;;;;4979182;28;20318;-70
2023/07/23 01:12:23;;;;;;;2.10;1.80;;;20.80;60.10;;;;;;4983579;28;20041;-68
2023/07/23 01:14:49;;;;;;;2.50;1.88;;;20.80;60.10;;;;;;4979202;28;20027;-67
2023/07/23 01:17:16;;;;;;;2.90;2.15;;;20.80;60.00;;;;;;4981962;28;20046;-70
2023/07/23 01:19:42;;;;;;;2.92;2.13;;;20.80;60.10;;;;;;4979251;28;20118;-68
2023/07/23 01:22:07;;;;;;;2.47;2.00;;;20.80;60.00;;;;;;4992203;28;20154;-69
2023/07/23 01:24:35;;;;;;;2.33;2.13;;;20.80;60.20;;;;;;4981439;28;20024;-68
2023/07/23 01:27:01;;;;;;;2.83;2.35;;;20.80;59.70;;;;;;4983864;28;20113;-67
2023/07/23 01:29:27;;;;;;;2.70;2.13;;;20.80;59.80;;;;;;4989587;28;20145;-68
2023/07/23 01:31:53;;;;;;;2.05;1.83;;;20.80;60.00;;;;;;4984811;28;20225;-69
2023/07/23 01:34:19;;;;;;;2.40;2.08;;;20.80;59.80;;;;;;4993248;28;20498;-70
2023/07/23 01:36:46;;;;;;;3.03;2.08;;;20.80;59.80;;;;;;4984158;28;20568;-68
2023/07/23 01:39:12;;;;;;;2.88;2.00;;;20.80;59.80;;;;;;4970936;28;20031;-69
2023/07/23 01:41:38;;;;;;;2.22;1.75;;;20.80;59.80;;;;;;4959847;28;20028;-68
2023/07/23 01:44:04;;;;;;;3.65;2.30;;;20.80;59.80;;;;;;4966992;28;20042;-68
2023/07/23 01:46:30;;;;;;;2.80;2.30;;;20.80;59.90;;;;;;4962300;28;20019;-69
2023/07/23 01:48:55;;;;;;;3.08;2.10;;;20.80;59.70;;;;;;4964557;28;20047;-67
2023/07/23 01:51:21;;;;;;;2.33;2.10;;;20.80;59.70;;;;;;4955068;28;20105;-69
2023/07/23 01:53:47;;;;;;;3.00;2.03;;;20.80;59.70;;;;;;4966135;28;21778;-68
2023/07/23 01:56:13;;;;;;;2.83;2.22;;;20.80;59.80;;;;;;4961942;28;20042;-69
2023/07/23 01:58:38;;;;;;;3.35;2.28;;;20.80;59.60;;;;;;4955921;28;20037;-67
2023/07/23 02:01:04;;;;;;;2.72;2.10;;;20.80;59.60;;;;;;4978153;28;20105;-68
2023/07/23 02:03:30;;;;;;;2.08;1.85;;;20.80;59.50;;;;;;4974762;28;20090;-68
2023/07/23 02:05:58;;;;;;;2.85;2.50;;;20.80;59.80;;;;;;4980576;28;20095;-68
2023/07/23 02:08:23;;;;;;;2.40;2.03;;;20.80;59.60;;;;;;4958012;28;20506;-69
2023/07/23 02:10:49;;;;;;;2.40;2.20;;;20.80;59.40;;;;;;4981200;28;20098;-68
2023/07/23 02:13:15;;;;;;;3.17;2.33;;;20.80;59.30;;;;;;4971771;28;20367;-68
2023/07/23 02:15:40;;;;;;;2.30;1.90;;;20.80;59.30;;;;;;4970814;28;20553;-67
2023/07/23 02:18:06;;;;;;;1.90;1.67;;;20.80;59.40;;;;;;4970722;28;20042;-69
2023/07/23 02:20:31;;;;;;;2.65;2.00;;;20.80;59.40;;;;;;4975415;28;20034;-67
2023/07/23 02:22:57;;;;;;;2.42;2.20;;;20.70;59.50;;;;;;4972620;28;20038;-69
2023/07/23 02:25:22;;;;;;;2.67;2.22;;;20.70;59.50;;;;;;4986122;28;21049;-69
2023/07/23 02:27:48;;;;;;;2.63;2.05;;;20.80;59.30;;;;;;4987044;28;20046;-69
2023/07/23 02:30:14;;;;;;;2.80;2.40;;;20.80;59.40;;;;;;4982411;28;20089;-68
2023/07/23 02:32:39;;;;;;;2.30;2.10;;;20.80;59.40;;;;;;4969800;28;20078;-69
2023/07/23 02:35:05;;;;;;;2.40;2.20;;;20.70;59.50;;;;;;4965240;28;20139;-69
2023/07/23 02:37:31;;;;;;;2.83;1.95;;;20.70;59.40;;;;;;4978220;28;20030;-67
2023/07/23 02:39:56;;;;;;;4.75;2.88;;;20.70;59.60;;;;;;4986363;28;20039;-68
2023/07/23 02:42:22;;;;;;;2.78;2.10;;;20.70;59.30;;;;;;4962644;28;20453;-66
2023/07/23 02:44:48;;;;;;;2.20;2.00;;;20.70;59.20;;;;;;4957923;28;20032;-67
2023/07/23 02:47:13;;;;;;;3.20;2.10;;;20.80;59.50;;;;;;4974451;28;20023;-69
2023/07/23 02:49:39;;;;;;;2.28;2.08;;;20.70;59.60;;;;;;4980791;28;20081;-68
2023/07/23 02:52:05;;;;;;;2.85;2.20;;;20.70;59.40;;;;;;4972551;28;20085;-68
2023/07/23 02:54:30;;;;;;;3.25;2.33;;;20.70;59.50;;;;;;4970201;28;20434;-69
2023/07/23 02:56:56;;;;;;;2.58;2.10;;;20.70;59.50;;;;;;4964824;28;20094;-69
2023/07/23 02:59:22;;;;;;;2.58;1.98;;;20.70;59.40;;;;;;4976847;28;20027;-68
2023/07/23 03:01:47;;;;;;;2.83;2.00;;;20.70;59.50;;;;;;4987613;28;20041;-69
2023/07/23 03:04:13;;;;;;;2.65;2.15;;;20.70;59.50;;;;;;4973435;28;20038;-69
2023/07/23 03:06:39;;;;;;;2.72;2.03;;;20.70;59.60;;;;;;4978940;28;20034;-69
2023/07/23 03:09:05;;;;;;;3.28;2.30;;;20.70;60.00;;;;;;4972529;28;20080;-68
2023/07/23 03:11:32;;;;;;;2.40;2.10;;;20.70;59.50;;;;;;4979140;28;20022;-66
2023/07/23 03:13:57;;;;;;;2.17;1.98;;;20.70;59.40;;;;;;4987905;28;20034;-68
2023/07/23 03:16:23;;;;;;;3.60;2.28;;;20.70;59.30;;;;;;4982693;28;20682;-68
2023/07/23 03:18:48;;;;;;;2.83;2.00;;;20.70;59.20;;;;;;4987311;28;20509;-68
2023/07/23 03:21:14;;;;;;;1.95;1.80;;;20.70;59.50;;;;;;4984209;28;20066;-68
2023/07/23 03:23:40;;;;;;;2.55;2.00;;;20.70;59.40;;;;;;4967527;28;20115;-67
2023/07/23 03:26:06;;;;;;;2.45;1.98;;;20.70;59.30;;;;;;4976865;28;20042;-67
2023/07/23 03:28:31;;;;;;;2.53;1.88;;;20.70;59.40;;;;;;4964367;28;20035;-67
2023/07/23 03:30:57;;;;;;;1.75;1.63;;;20.70;59.50;;;;;;4983090;28;20066;-69
2023/07/23 03:33:23;;;;;;;2.63;2.13;;;20.70;59.40;;;;;;4970374;28;20413;-68
2023/07/23 03:35:48;;;;;;;2.60;1.85;;;20.70;59.50;;;;;;4968022;28;20046;-68
2023/07/23 03:38:14;;;;;;;2.90;2.00;;;20.70;59.60;;;;;;4970795;28;20411;-68
2023/07/23 03:40:40;;;;;;;2.72;1.98;;;20.70;59.60;;;;;;4979367;28;20189;-67
2023/07/23 03:43:05;;;;;;;2.45;2.03;;;20.60;59.50;;;;;;4977929;28;20493;-69
2023/07/23 03:45:31;;;;;;;3.22;2.30;;;20.70;59.60;;;;;;4966993;28;20034;-67
2023/07/23 03:47:56;;;;;;;2.17;1.98;;;20.70;59.70;;;;;;4983856;28;20045;-69
2023/07/23 03:50:22;;;;;;;3.15;2.45;;;20.70;59.60;;;;;;4975512;28;20080;-64
2023/07/23 03:52:47;;;;;;;2.22;1.98;;;20.60;59.60;;;;;;4974050;28;20042;-63
2023/07/23 03:55:14;;;;;;;2.33;1.83;;;20.60;59.50;;;;;;4973334;28;20093;-67
2023/07/23 03:57:39;;;;;;;2.10;1.70;;;20.70;59.80;;;;;;4969265;28;20031;-66
2023/07/23 04:00:06;;;;;;;2.30;1.98;;;20.60;59.20;;;;;;4977039;28;20027;-65
2023/07/23 04:02:31;;;;;;;2.85;1.92;;;20.60;59.60;;;;;;4989795;28;20230;-64
2023/07/23 04:04:57;;;;;;;3.45;2.42;;;20.60;59.30;;;;;;4973945;28;20150;-65
2023/07/23 04:07:22;;;;;;;2.50;2.05;;;20.60;59.50;;;;;;4966819;28;20085;-64
2023/07/23 04:09:48;;;;;;;2.15;1.83;;;20.60;59.50;;;;;;4991430;28;20026;-66
2023/07/23 04:12:13;;;;;;;3.63;1.90;;;20.70;59.70;;;;;;4988424;28;20038;-64
2023/07/23 04:14:42;;;;;;;2.50;2.00;;;20.60;59.60;;;;;;4983196;28;20048;-67
2023/07/23 04:17:11;;;;;;;3.13;2.20;;;20.60;59.70;;;;;;4976934;28;20022;-65
2023/07/23 04:19:37;;;;;;;2.83;2.10;;;20.60;59.80;;;;;;4973399;28;20585;-64
2023/07/23 04:22:03;;;;;;;2.85;2.25;;;20.70;59.70;;;;;;4973821;28;20026;-65
2023/07/23 04:24:29;;;;;;;3.08;2.08;;;20.60;59.70;;;;;;4973089;28;20583;-64
2023/07/23 04:26:54;;;;;;;2.83;2.20;;;20.60;59.50;;;;;;4976916;28;20232;-66
2023/07/23 04:29:20;;;;;;;3.22;2.30;;;20.60;59.60;;;;;;4988828;28;20053;-65
2023/07/23 04:31:45;;;;;;;2.00;1.80;;;20.60;59.50;;;;;;4972419;28;20054;-68
2023/07/23 04:34:11;;;;;;;2.20;1.70;;;20.60;59.60;;;;;;4973040;28;20082;-65
2023/07/23 04:36:36;;;;;;;3.50;2.00;;;20.60;59.30;;;;;;4986275;28;20041;-68
2023/07/23 04:39:03;;;;;;;3.88;2.38;;;20.60;59.10;;;;;;4975344;28;20430;-64
2023/07/23 04:41:29;;;;;;;2.53;2.20;;;20.60;59.10;;;;;;4961288;28;20059;-66
2023/07/23 04:43:55;;;;;;;3.20;2.10;;;20.60;59.00;;;;;;4977191;28;20042;-65
2023/07/23 04:46:20;;;;;;;2.58;2.20;;;20.60;59.20;;;;;;4982406;28;20551;-64
2023/07/23 04:48:46;;;;;;;2.50;2.28;;;20.60;58.60;;;;;;4980680;28;20088;-66
2023/07/23 04:51:11;;;;;;;2.78;2.47;;;20.60;59.00;;;;;;4987487;28;20089;-63
2023/07/23 04:53:37;;;;;;;2.45;1.90;;;20.60;58.90;;;;;;4987917;28;20031;-66
2023/07/23 04:56:04;;;;;;;2.50;2.03;;;20.60;59.10;;;;;;4977088;28;20035;-64
2023/07/23 04:58:31;;;;;;;1.85;1.65;;;20.60;59.50;;;;;;4964596;28;20085;-65
2023/07/23 05:00:58;;;;;;;3.58;2.58;;;20.60;59.30;;;;;;4978703;28;20034;-63
2023/07/23 05:03:24;;;;;;;2.08;1.85;;;20.60;59.40;;;;;;4968871;28;20030;-66
2023/07/23 05:05:51;;;;;;;2.95;2.13;;;20.60;59.50;;;;;;4975837;28;20034;-65
2023/07/23 05:08:20;;;;;;;3.28;2.20;;;20.60;59.20;;;;;;4982801;28;20045;-64
2023/07/23 05:10:46;;;;;;;3.05;2.00;;;20.60;59.10;;;;;;4989762;28;20177;-66
2023/07/23 05:13:13;;;;;;;3.40;2.22;;;20.60;59.50;;;;;;4970300;28;20041;-66
2023/07/23 05:15:38;;;;;;;2.47;1.90;;;20.60;59.20;;;;;;4990105;28;20026;-64
2023/07/23 05:18:04;;;;;;;2.50;1.80;;;20.60;59.70;;;;;;4980135;28;20041;-66
2023/07/23 05:20:29;;;;;;;2.10;1.88;;;20.60;59.70;;;;;;4964806;28;20171;-66
2023/07/23 05:22:56;;;;;;;3.13;2.28;;;20.60;59.60;;;;;;4970856;28;20043;-64
2023/07/23 05:25:21;;;;;;;3.08;2.20;;;20.60;59.50;;;;;;4968323;28;20034;-64
2023/07/23 05:27:48;;;;;;;2.53;2.20;;;20.60;59.80;;;;;;4969174;28;20236;-65
2023/07/23 05:30:14;;;;;;;2.53;2.20;;;20.60;59.60;;;;;;4977262;28;20437;-65
2023/07/23 05:32:39;;;;;;;3.33;2.25;;;20.60;59.60;;;;;;4974161;28;20038;-64
2023/07/23 05:35:05;;;;;;;2.30;2.05;;;20.60;59.70;;;;;;4978484;28;20064;-68
2023/07/23 05:37:31;;;;;;;4.13;2.50;;;20.60;59.50;;;;;;4990889;28;20037;-65
2023/07/23 05:39:56;;;;;;;2.22;2.03;;;20.60;59.10;;;;;;4981574;28;20475;-68
2023/07/23 05:42:22;;;;;;;2.42;1.90;;;20.60;59.50;;;;;;4966870;28;20077;-65
2023/07/23 05:44:49;;;;;;;2.60;2.17;;;20.60;59.60;;;;;;4980878;28;20065;-68
2023/07/23 05:47:14;;;;;;;3.10;1.90;;;20.60;59.50;;;;;;4983522;28;20031;-65
2023/07/23 05:49:40;;;;;;;2.35;1.95;;;20.60;59.20;;;;;;4983033;28;20466;-65
2023/07/23 05:52:06;;;;;;;3.17;2.38;;;20.60;59.40;;;;;;4984872;28;20109;-66
2023/07/23 05:54:32;;;;;;;2.38;2.10;;;20.60;59.40;;;;;;4980321;28;20038;-67
2023/07/23 05:56:58;;;;;;;2.15;1.92;;;20.60;59.40;;;;;;4977239;28;20053;-68
2023/07/23 05:59:24;;;;;;;2.47;2.20;;;20.60;59.70;;;;;;4971828;28;20126;-64
2023/07/23 06:01:49;;;;;;;2.58;2.20;;;20.60;59.30;;;;;;4975485;28;20536;-67
2023/07/23 06:04:15;;;;;;;2.55;2.10;;;20.60;59.40;;;;;;4980158;28;20045;-66
2023/07/23 06:06:40;;;;;;;2.67;1.95;;;20.60;59.20;;;;;;4983516;28;20054;-64
2023/07/23 06:09:06;;;;;;;2.88;2.30;;;20.60;59.20;;;;;;4970659;28;20032;-64
2023/07/23 06:11:32;;;;;;;2.30;2.10;;;20.60;59.40;;;;;;4974211;28;20034;-65
2023/07/23 06:14:00;;;;;;;2.35;2.00;;;20.60;59.50;;;;;;4973681;28;20065;-65
2023/07/23 06:16:26;;;;;;;2.88;2.13;;;20.60;58.60;;;;;;4976151;28;20037;-64
2023/07/23 06:18:51;;;;;;;3.28;2.30;;;20.60;59.30;;;;;;4983112;28;20408;-68
2023/07/23 06:21:17;;;;;;;3.03;2.28;;;20.60;59.10;;;;;;4975353;28;20141;-64
2023/07/23 06:23:43;;;;;;;2.80;1.98;;;20.60;59.10;;;;;;4978173;28;20514;-69
2023/07/23 06:26:08;;;;;;;2.35;2.00;;;20.60;59.10;;;;;;4960581;28;20027;-69
2023/07/23 06:28:34;;;;;;;2.20;2.00;;;20.70;59.20;;;;;;4979963;28;20401;-68
2023/07/23 06:30:59;;;;;;;3.25;2.20;;;20.70;59.10;;;;;;4988959;28;20072;-69
2023/07/23 06:33:25;;;;;;;4.03;2.30;;;20.70;60.30;;;;;;4974927;28;20043;-67
2023/07/23 06:35:51;;;;;;;8.38;2.70;;;20.60;62.50;;;;;;4977634;28;20026;-68
2023/07/23 06:38:16;;;;;;;7.70;2.63;;;20.60;62.20;;;;;;4975107;28;20066;-69
2023/07/23 06:40:46;;;;;;;10.73;3.08;;;20.60;62.00;;;;;;4980946;28;20034;-70
2023/07/23 06:43:12;;;;;;;4.47;3.00;;;20.60;61.70;;;;;;4977716;28;20046;-67
2023/07/23 06:45:39;;;;;;;5.70;3.15;;;20.60;61.90;;;;;;4982430;28;20054;-69
2023/07/23 06:48:05;;;;;;;4.93;2.85;;;20.60;61.80;;;;;;4970275;28;20449;-69
2023/07/23 06:50:31;;;;;;;5.85;2.50;;;20.70;61.50;;;;;;4972915;28;20046;-70
2023/07/23 06:52:57;;;;;;;4.20;3.17;;;20.70;61.40;;;;;;4978685;28;20061;-71
2023/07/23 06:55:23;;;;;;;3.63;2.53;;;20.70;61.30;;;;;;4971678;28;20041;-68
2023/07/23 06:57:48;;;;;;;3.85;2.83;;;20.60;61.50;;;;;;4978104;28;20034;-68
2023/07/23 07:00:14;;;;;;;6.25;3.85;;;20.60;61.10;;;;;;4965169;28;20110;-69
2023/07/23 07:02:40;;;;;;;5.80;3.00;;;20.70;61.30;;;;;;4977720;28;20515;-67
2023/07/23 07:05:05;;;;;;;3.78;2.67;;;20.70;61.00;;;;;;4979403;28;20035;-69
2023/07/23 07:07:31;;;;;;;4.93;3.00;;;20.70;61.20;;;;;;4969248;28;20525;-67
2023/07/23 07:09:56;;;;;;;4.47;3.35;;;20.70;61.00;;;;;;4975195;28;20042;-68
2023/07/23 07:12:24;;;;;;;6.57;3.10;;;20.70;61.20;;;;;;4989748;28;20042;-69
2023/07/23 07:14:49;;;;;;;3.97;2.92;;;20.70;61.10;;;;;;4978798;28;20023;-68
2023/07/23 07:17:15;;;;;;;4.72;3.13;;;20.70;61.10;;;;;;4980348;28;20092;-68
2023/07/23 07:19:41;;;;;;;4.38;3.10;;;20.70;60.80;;;;;;4981764;28;20238;-66
2023/07/23 07:22:06;;;;;;;6.00;3.60;;;20.70;60.70;;;;;;4982774;28;20101;-69
2023/07/23 07:24:32;;;;;;;4.15;3.50;;;20.70;60.50;;;;;;4975746;28;20385;-68
2023/07/23 07:26:57;;;;;;;7.28;3.20;;;20.70;60.40;;;;;;4979834;28;20038;-68
2023/07/23 07:29:23;;;;;;;4.97;3.35;;;20.70;60.30;;;;;;4975792;28;20042;-68
2023/07/23 07:31:48;;;;;;;4.63;3.25;;;20.70;60.20;;;;;;4975048;28;20028;-68
2023/07/23 07:34:14;;;;;;;5.72;3.33;;;20.70;60.10;;;;;;4989530;28;20066;-69
2023/07/23 07:36:40;;;;;;;7.00;3.33;;;20.70;60.10;;;;;;4972391;28;20113;-69
2023/07/23 07:39:05;;;;;;;5.93;2.80;;;20.70;60.10;;;;;;4974165;28;20036;-67
2023/07/23 07:41:31;;;;;;;3.83;3.00;;;20.70;60.10;;;;;;4970414;28;20122;-67
2023/07/23 07:43:56;;;;;;;5.38;3.22;;;20.70;60.10;;;;;;4964552;28;20046;-68
2023/07/23 07:46:23;;;;;;;7.10;3.67;;;20.70;60.10;;;;;;4977162;28;20097;-67
2023/07/23 07:48:49;;;;;;;4.70;3.35;;;20.70;60.00;;;;;;4972817;28;20042;-68
2023/07/23 07:51:14;;;;;;;4.47;3.58;;;20.70;59.60;;;;;;4976969;28;20023;-69
2023/07/23 07:53:40;;;;;;;3.50;2.90;;;20.70;59.40;;;;;;4975059;28;20121;-67
2023/07/23 07:56:13;;;;;;;3.20;2.72;;;20.70;59.30;;;;;;4971236;28;20027;-67
2023/07/23 07:58:39;;;;;;;4.13;3.00;;;20.70;59.10;;;;;;4974300;28;20085;-68
2023/07/23 08:01:04;;;;;;;3.60;2.88;;;20.70;59.20;;;;;;4968161;28;20050;-68
2023/07/23 08:03:31;;;;;;;4.05;3.45;;;20.70;59.80;;;;;;4973422;28;20571;-69
2023/07/23 08:05:58;;;;;;;5.07;3.67;;;20.60;59.10;;;;;;4967465;28;20473;-67
2023/07/23 08:08:28;;;;;;;3.85;3.15;;;20.60;58.80;;;;;;4963551;28;20072;-68
2023/07/23 08:10:56;;;;;;;4.38;3.13;;;20.60;58.50;;;;;;4963742;28;20035;-68
2023/07/23 08:13:22;;;;;;;4.85;2.85;;;20.70;59.40;;;;;;4966647;28;20130;-67
2023/07/23 08:15:47;;;;;;;5.68;3.50;;;20.70;58.90;;;;;;4966405;28;20099;-68
2023/07/23 08:18:16;;;;;;;3.28;2.97;;;20.70;58.90;;;;;;4969455;28;20089;-69
2023/07/23 08:20:43;;;;;;;3.65;3.00;;;20.70;59.00;;;;;;4968802;28;20030;-69
2023/07/23 08:23:09;;;;;;;4.05;3.22;;;20.60;58.80;;;;;;4974012;28;20573;-69
2023/07/23 08:25:36;;;;;;;3.13;2.83;;;20.70;58.80;;;;;;4970636;28;20030;-67
2023/07/23 08:28:02;;;;;;;3.20;2.85;;;20.70;58.70;;;;;;4979463;28;20163;-67
2023/07/23 08:30:29;;;;;;;3.22;2.80;;;20.70;58.70;;;;;;4961344;28;20027;-67
2023/07/23 08:32:56;;;;;;;5.30;2.88;;;20.70;58.70;;;;;;4963032;28;20142;-68
2023/07/23 08:35:24;;;;;;;3.38;2.80;;;20.70;58.80;;;;;;4971315;28;20405;-67
2023/07/23 08:37:50;;;;;;;4.63;3.20;;;20.70;58.80;;;;;;4980119;28;20542;-67
2023/07/23 08:40:16;;;;;;;3.85;2.83;;;20.70;58.90;;;;;;4980664;28;20402;-67
2023/07/23 08:42:57;;;;;;;4.03;3.05;;;20.70;58.90;;;;;;4977984;28;20100;-66
2023/07/23 08:45:52;;;;;;;4.70;2.85;;;20.70;59.00;;;;;;4978201;28;20026;-67
2023/07/23 08:48:19;;;;;;;3.37;2.80;;;20.70;59.00;;;;;;4984093;28;20174;-67
2023/07/23 08:50:52;;;;;;;3.35;2.65;;;20.80;59.00;;;;;;4968116;28;20279;-67
2023/07/23 08:53:18;;;;;;;4.35;2.40;;;20.70;58.90;;;;;;4969547;28;21490;-66
2023/07/23 08:55:45;;;;;;;6.50;3.45;;;20.70;58.90;;;;;;4973324;28;20442;-66
2023/07/23 08:58:19;;;;;;;4.18;2.80;;;20.70;58.90;;;;;;4971493;28;20433;-66
2023/07/23 09:00:46;;;;;;;4.50;2.95;;;20.70;58.90;;;;;;4974465;28;20107;-66
2023/07/23 09:03:14;;;;;;;4.45;3.08;;;20.70;58.80;;;;;;4963494;28;20031;-67
2023/07/23 09:05:40;;;;;;;3.28;2.90;;;20.80;58.80;;;;;;4969207;28;20366;-67
2023/07/23 09:08:06;;;;;;;4.93;3.20;;;20.70;58.70;;;;;;4967092;28;20041;-66
2023/07/23 09:10:32;;;;;;;6.72;2.78;;;20.70;58.60;;;;;;4967239;28;20038;-66
2023/07/23 09:12:57;;;;;;;3.92;3.25;;;20.80;58.40;;;;;;4970540;28;20038;-67
2023/07/23 09:15:23;;;;;;;3.70;2.90;;;20.80;58.40;;;;;;4967864;28;20035;-66
2023/07/23 09:17:50;;;;;;;4.28;3.05;;;20.80;58.60;;;;;;4967897;28;20023;-66
2023/07/23 09:20:18;;;;;;;3.63;2.97;;;20.80;58.50;;;;;;4976272;28;20228;-67
2023/07/23 09:22:44;;;;;;;4.80;2.63;;;20.80;58.60;;;;;;4979850;28;20065;-66
2023/07/23 09:25:09;;;;;;;4.35;3.67;;;20.80;58.60;;;;;;4976431;28;20485;-66
2023/07/23 09:27:42;;;;;;;4.10;3.05;;;20.80;58.60;;;;;;4968120;28;20034;-66
2023/07/23 09:30:17;;;;;;;4.20;3.20;;;20.80;58.40;;;;;;4976489;28;20119;-68
2023/07/23 09:32:43;;;;;;;;;;;20.80;58.50;;;;;;4963305;28;20090;-67
2023/07/23 09:35:08;;;;;;;4.28;2.78;;;20.80;58.50;;;;;;4971172;28;19917;-67
2023/07/23 09:37:35;;;;;;;3.22;2.78;;;20.90;58.60;;;;;;4981113;28;20658;-68
2023/07/23 09:40:01;;;;;;;3.92;3.08;;;20.80;58.50;;;;;;4964483;28;20058;-68
2023/07/23 09:42:26;;;;;;;2.97;2.55;;;20.90;58.60;;;;;;4980381;28;20058;-68
2023/07/23 09:44:52;;;;;;;6.50;3.30;;;20.90;58.40;;;;;;4982303;28;20110;-68
2023/07/23 09:47:25;;;;;;;4.28;2.97;;;20.80;57.80;;;;;;4982145;28;20030;-69
2023/07/23 09:49:53;;;;;;;5.15;3.00;;;20.90;57.50;;;;;;4972355;28;20031;-69
2023/07/23 09:52:23;;;;;;;4.07;2.72;;;20.80;57.50;;;;;;4974751;28;20038;-67
2023/07/23 09:54:50;;;;;;;4.82;2.80;;;20.90;57.50;;;;;;4969105;28;20438;-68
2023/07/23 09:57:17;;;;;;;4.57;2.92;;;20.90;57.40;;;;;;4990800;28;20030;-68
2023/07/23 09:59:44;;;;;;;5.45;3.05;;;20.90;57.40;;;;;;4974920;28;20027;-69
2023/07/23 10:02:09;;;;;;;4.70;3.25;;;20.90;57.30;;;;;;4971579;28;20539;-70
2023/07/23 10:04:37;;;;;;;4.75;3.08;;;20.90;57.40;;;;;;4977027;28;20022;-69
2023/07/23 10:07:04;;;;;;;10.35;3.78;;;20.90;57.50;;;;;;4973904;28;20110;-70
2023/07/23 10:09:31;;;;;;;5.43;3.00;;;20.90;57.50;;;;;;4988639;28;20030;-68
2023/07/23 10:11:56;;;;;;;5.72;2.92;;;20.90;57.40;;;;;;4970547;28;20046;-68
2023/07/23 10:14:22;;;;;;;5.20;3.53;;;20.90;56.40;;;;;;4966847;28;20453;-67
2023/07/23 10:16:49;;;;;;;5.07;3.28;;;20.90;56.40;;;;;;4973749;28;20089;-69
2023/07/23 10:19:15;;;;;;;5.32;3.65;;;20.90;55.80;;;;;;4983836;28;20039;-69
2023/07/23 10:21:48;;;;;;;3.92;3.33;;;20.90;55.60;;;;;;4971331;28;20403;-68
2023/07/23 10:24:13;;;;;;;5.72;3.13;;;20.90;55.50;;;;;;4971567;28;20045;-68
2023/07/23 10:26:45;;;;;;;6.45;2.90;;;20.90;55.30;;;;;;4978137;28;20031;-69
2023/07/23 10:29:18;;;;;;;3.90;3.10;;;20.90;55.80;;;;;;4968117;28;20054;-68
2023/07/23 10:31:44;;;;;;;4.38;3.05;;;20.90;55.80;;;;;;4968282;28;20446;-68
2023/07/23 10:34:22;;;;;;;7.90;3.40;;;20.90;55.90;;;;;;4981553;28;20088;-68
2023/07/23 10:37:19;;;;;;;4.57;3.22;;;20.90;56.10;;;;;;4971912;28;20039;-67
2023/07/23 10:39:52;;;;;;;4.72;3.45;;;20.90;56.20;;;;;;4970795;28;20042;-69
2023/07/23 10:42:41;;;;;;;4.00;3.20;;;20.90;56.40;;;;;;4970681;28;20045;-68
2023/07/23 10:45:17;;;;;;;5.57;3.30;;;21.00;56.30;;;;;;4973573;28;20050;-67
2023/07/23 10:47:55;;;;;;;3.10;2.80;;;20.90;57.10;;;;;;4976319;28;20030;-69
2023/07/23 10:50:22;;;;;;;4.78;3.08;;;20.90;56.50;;;;;;4975799;28;20094;-68
2023/07/23 10:53:03;;;;;;;5.53;3.30;;;21.00;56.70;;;;;;4972481;28;20453;-69
2023/07/23 10:55:32;;;;;;;3.70;2.85;;;21.00;56.60;;;;;;4970582;28;20038;-69
2023/07/23 10:58:01;;;;;;;4.20;3.70;;;21.00;56.70;;;;;;4977474;28;20236;-68
2023/07/23 11:00:26;;;;;;;6.38;3.00;;;21.00;56.80;;;;;;4969992;28;20042;-68
2023/07/23 11:02:55;;;;;;;5.05;3.13;;;21.00;56.90;;;;;;4977850;28;20026;-68
2023/07/23 11:05:21;;;;;;;11.57;3.53;;;21.00;56.70;;;;;;4976197;28;20118;-67
2023/07/23 11:08:16;;;;;;;4.75;3.00;;;21.00;55.90;;;;;;4974612;28;20185;-68
2023/07/23 11:10:56;;;;;;;4.95;3.22;;;21.00;56.10;;;;;;4972194;28;20038;-69
2023/07/23 11:13:24;;;;;;;6.35;3.35;;;21.00;55.80;;;;;;4968764;28;20039;-69
2023/07/23 11:15:50;;;;;;;5.03;3.92;;;21.00;55.70;;;;;;4973481;28;20039;-68
2023/07/23 11:18:15;;;;;;;5.78;3.20;;;21.00;56.00;;;;;;4969541;28;20529;-68
2023/07/23 11:20:48;;;;;;;5.03;3.22;;;21.10;56.10;;;;;;4970986;28;20047;-67
2023/07/23 11:23:16;;;;;;;5.80;3.33;;;21.10;55.80;;;;;;4968819;28;20038;-66
2023/07/23 11:25:43;;;;;;;5.13;3.42;;;21.10;55.90;;;;;;4978426;28;20108;-66
2023/07/23 11:28:09;;;;;;;7.20;4.07;;;21.10;56.10;;;;;;4978512;28;20030;-67
2023/07/23 11:30:34;;;;;;;14.05;4.20;;;21.10;56.40;;;;;;4970170;28;20716;-67
2023/07/23 11:33:05;;;;;;;9.90;4.00;;;21.20;57.70;;;;;;4972715;28;20129;-67
2023/07/23 11:35:31;;;;;;;9.43;4.47;;;21.10;57.70;;;;;;4970013;28;20110;-68
2023/07/23 11:38:04;;;;;;;10.00;4.82;;;21.20;58.00;;;;;;4973927;28;20054;-69
2023/07/23 11:40:30;;;;;;;10.50;4.18;;;21.20;58.20;;;;;;4973754;28;20035;-67
2023/07/23 11:42:55;;;;;;;6.72;3.65;;;21.30;58.10;;;;;;4975267;28;20030;-68
2023/07/23 11:45:21;;;;;;;7.82;4.63;;;21.20;57.50;;;;;;4970392;28;20026;-67
2023/07/23 11:47:52;;;;;;;14.23;7.93;;;21.30;58.00;;;;;;4974486;28;20041;-70
2023/07/23 11:50:22;;;;;;;12.75;8.45;;;21.30;58.20;;;;;;4972483;28;20081;-66
2023/07/23 11:52:49;;;;;;;14.23;8.80;;;21.30;58.10;;;;;;4972061;28;20045;-66
2023/07/23 11:55:36;;;;;;;9.32;6.07;;;21.30;57.90;;;;;;4980079;28;20031;-68
2023/07/23 11:58:02;;;;;;;11.60;5.45;;;21.30;57.80;;;;;;4967784;28;20035;-67
2023/07/23 12:00:37;;;;;;;11.52;5.13;;;21.30;57.40;;;;;;4971608;28;20593;-66
2023/07/23 12:03:07;;;;;;;7.90;5.10;;;21.30;57.20;;;;;;4974445;28;20038;-68
2023/07/23 12:05:32;;;;;;;9.48;4.72;;;21.30;57.70;;;;;;4975096;28;20482;-67
2023/07/23 12:07:58;;;;;;;5.43;3.72;;;21.30;56.80;;;;;;4973984;28;20038;-65
2023/07/23 12:10:27;;;;;;;5.03;4.22;;;21.30;55.50;;;;;;4973907;28;20059;-66
2023/07/23 12:12:52;;;;;;;6.85;3.47;;;21.30;55.30;;;;;;4976468;28;20030;-66
2023/07/23 12:15:18;;;;;;;8.50;4.03;;;21.30;55.20;;;;;;4974032;28;20038;-67
2023/07/23 12:17:45;;;;;;;5.45;3.75;;;21.30;55.40;;;;;;4979218;28;20042;-66
2023/07/23 12:20:16;;;;;;;5.18;3.35;;;21.30;55.60;;;;;;4977270;28;20038;-65
2023/07/23 12:22:52;;;;;;;4.47;3.47;;;21.30;55.30;;;;;;4975698;28;20255;-67
2023/07/23 12:25:18;;;;;;;5.82;3.75;;;21.30;55.50;;;;;;4974128;28;20120;-69
2023/07/23 12:27:43;;;;;;;6.22;3.80;;;21.30;54.80;;;;;;4971629;28;20694;-68
2023/07/23 12:30:09;;;;;;;6.55;4.03;;;21.30;54.70;;;;;;4971764;28;20069;-68
2023/07/23 12:32:35;;;;;;;3.97;3.17;;;21.30;54.30;;;;;;4971296;28;20066;-67
2023/07/23 12:35:01;;;;;;;3.88;3.13;;;21.30;54.70;;;;;;4974932;28;20034;-67
2023/07/23 12:37:27;;;;;;;7.05;3.53;;;21.30;54.60;;;;;;4982455;28;20038;-69
2023/07/23 12:39:54;;;;;;;4.65;3.42;;;21.30;54.40;;;;;;4973618;28;20034;-69
2023/07/23 12:42:20;;;;;;;6.80;3.92;;;21.30;54.50;;;;;;4971623;28;20117;-69
2023/07/23 12:44:46;;;;;;;7.40;3.85;;;21.30;54.60;;;;;;4963586;28;20031;-68